createdAt,value
2022-09-12T00:00:28.269Z,14.00
2022-09-12T00:03:16.500Z,13.99
2022-09-12T00:05:45.904Z,14.03
2022-09-12T00:08:14.406Z,14.03
2022-09-12T00:10:44.200Z,14.02
2022-09-12T00:13:12.484Z,14.02
2022-09-12T00:15:41.539Z,14.00
2022-09-12T00:18:12.360Z,13.97
2022-09-12T00:20:47.196Z,13.94
2022-09-12T00:23:15.217Z,13.94
2022-09-12T00:25:43.741Z,13.93
2022-09-12T00:28:12.594Z,13.92
2022-09-12T00:30:42.139Z,13.93
2022-09-12T00:33:11.094Z,13.97
2022-09-12T00:35:56.898Z,13.98
2022-09-12T00:38:24.957Z,14.02
2022-09-12T00:40:52.960Z,14.07
2022-09-12T00:43:29.931Z,14.12
2022-09-12T00:45:58.662Z,14.11
2022-09-12T00:48:31.155Z,14.08
2022-09-12T00:50:59.078Z,14.05
2022-09-12T00:53:27.308Z,14.07
2022-09-12T00:55:56.625Z,14.05
2022-09-12T00:58:36.270Z,14.01
2022-09-12T01:01:04.521Z,13.99
2022-09-12T01:03:32.688Z,13.97
2022-09-12T01:06:00.699Z,13.97
2022-09-12T01:08:28.855Z,13.96
2022-09-12T01:10:57.808Z,13.94
2022-09-12T01:13:26.348Z,13.94
2022-09-12T01:15:55.359Z,13.92
2022-09-12T01:18:42.081Z,13.89
2022-09-12T01:21:28.663Z,13.89
2022-09-12T01:24:14.870Z,13.93
2022-09-12T01:26:46.210Z,13.94
2022-09-12T01:29:32.818Z,13.94
2022-09-12T01:32:08.938Z,13.90
2022-09-12T01:34:37.465Z,13.85
2022-09-12T01:37:05.366Z,13.83
2022-09-12T01:40:02.848Z,13.76
2022-09-12T01:42:49.930Z,13.74
2022-09-12T01:45:25.134Z,13.73
2022-09-12T01:48:01.123Z,13.71
2022-09-12T01:50:32.314Z,13.70
2022-09-12T01:53:14.918Z,13.69
2022-09-12T01:55:42.988Z,13.70
2022-09-12T01:58:11.227Z,13.69
2022-09-12T02:00:50.394Z,13.67
2022-09-12T02:03:20.817Z,13.64
2022-09-12T02:06:05.110Z,13.57
2022-09-12T02:08:40.737Z,13.59
2022-09-12T02:11:10.609Z,13.59
2022-09-12T02:13:42.249Z,13.63
2022-09-12T02:16:15.690Z,13.64
2022-09-12T02:18:49.394Z,13.65
2022-09-12T02:21:19.427Z,13.68
2022-09-12T02:23:51.562Z,13.68
2022-09-12T02:26:21.681Z,13.56
2022-09-12T02:28:50.820Z,13.41
2022-09-12T02:31:18.750Z,13.27
2022-09-12T02:33:50.095Z,13.18
2022-09-12T02:36:24.680Z,13.13
2022-09-12T02:38:53.106Z,13.07
2022-09-12T02:41:21.547Z,13.08
2022-09-12T02:43:50.629Z,13.08
2022-09-12T02:46:34.689Z,13.13
2022-09-12T02:49:03.065Z,13.17
2022-09-12T02:51:31.265Z,13.17
2022-09-12T02:53:59.465Z,13.15
2022-09-12T02:56:28.673Z,13.17
2022-09-12T02:59:01.245Z,13.12
2022-09-12T03:01:35.924Z,13.09
2022-09-12T03:04:16.063Z,13.07
2022-09-12T03:06:46.994Z,12.99
2022-09-12T03:09:35.122Z,12.98
2022-09-12T03:12:06.376Z,12.93
2022-09-12T03:15:13.759Z,12.92
2022-09-12T03:17:44.799Z,12.81
2022-09-12T03:20:19.414Z,12.68
2022-09-12T03:22:54.991Z,12.68
2022-09-12T03:25:32.785Z,12.64
2022-09-12T03:28:09.554Z,12.68
2022-09-12T03:30:41.997Z,12.69
2022-09-12T03:33:14.056Z,12.67
2022-09-12T03:35:42.175Z,12.69
2022-09-12T03:38:10.143Z,12.58
2022-09-12T03:40:38.421Z,12.50
2022-09-12T03:43:08.140Z,12.44
2022-09-12T03:45:36.543Z,12.40
2022-09-12T03:48:04.828Z,12.38
2022-09-12T03:50:32.864Z,12.42
2022-09-12T03:53:01.086Z,12.42
2022-09-12T03:55:29.325Z,12.38
2022-09-12T03:57:58.006Z,12.37
2022-09-12T04:00:25.926Z,12.36
2022-09-12T04:02:56.123Z,12.32
2022-09-12T04:05:25.072Z,12.25
2022-09-12T04:07:53.071Z,12.23
2022-09-12T04:10:21.142Z,12.15
2022-09-12T04:12:49.211Z,12.11
2022-09-12T04:15:17.389Z,12.12
2022-09-12T04:17:45.461Z,12.10
2022-09-12T04:20:13.404Z,12.12
2022-09-12T04:22:41.240Z,12.13
2022-09-12T04:25:09.741Z,12.13
2022-09-12T04:27:38.169Z,12.13
2022-09-12T04:30:06.820Z,12.11
2022-09-12T04:32:34.954Z,12.16
2022-09-12T04:35:03.713Z,12.22
2022-09-12T04:37:31.787Z,12.22
2022-09-12T04:39:59.899Z,12.29
2022-09-12T04:42:27.934Z,12.41
2022-09-12T04:44:56.007Z,12.48
2022-09-12T04:47:24.594Z,12.51
2022-09-12T04:49:52.668Z,12.53
2022-09-12T04:52:21.483Z,12.45
2022-09-12T04:54:49.329Z,12.47
2022-09-12T04:57:17.342Z,12.53
2022-09-12T04:59:45.273Z,12.61
2022-09-12T05:02:13.303Z,12.62
2022-09-12T05:04:41.543Z,12.63
2022-09-12T05:07:09.793Z,12.64
2022-09-12T05:09:38.891Z,12.64
2022-09-12T05:12:07.975Z,12.70
2022-09-12T05:14:35.887Z,12.69
2022-09-12T05:17:06.227Z,12.62
2022-09-12T05:19:35.180Z,12.57
2022-09-12T05:22:03.253Z,12.51
2022-09-12T05:24:31.401Z,12.48
2022-09-12T05:26:59.428Z,12.45
2022-09-12T05:29:27.326Z,12.46
2022-09-12T05:31:55.443Z,12.47
2022-09-12T05:34:23.636Z,12.46
2022-09-12T05:36:51.589Z,12.45
2022-09-12T05:39:19.804Z,12.41
2022-09-12T05:41:48.456Z,12.42
2022-09-12T05:44:16.627Z,12.42
2022-09-12T05:46:51.423Z,12.38
2022-09-12T05:49:19.667Z,12.33
2022-09-12T05:51:47.585Z,12.38
2022-09-12T05:54:18.225Z,12.41
2022-09-12T05:56:46.539Z,12.43
2022-09-12T05:59:16.892Z,12.44
2022-09-12T06:01:45.590Z,12.51
2022-09-12T06:04:13.824Z,12.58
2022-09-12T06:06:45.204Z,12.64
2022-09-12T06:09:15.102Z,12.69
2022-09-12T06:11:44.175Z,12.67
2022-09-12T06:14:14.980Z,12.72
2022-09-12T06:16:43.047Z,12.78
2022-09-12T06:19:16.213Z,12.82
2022-09-12T06:21:45.069Z,12.79
2022-09-12T06:24:13.450Z,12.77
2022-09-12T06:26:44.025Z,12.73
2022-09-12T06:29:13.343Z,12.67
2022-09-12T06:31:41.976Z,12.66
2022-09-12T06:34:11.038Z,12.68
2022-09-12T06:36:43.609Z,12.70
2022-09-12T06:39:13.154Z,12.68
2022-09-12T06:41:44.091Z,12.57
2022-09-12T06:44:14.421Z,12.53
2022-09-12T06:46:42.801Z,12.53
2022-09-12T06:49:11.098Z,12.52
2022-09-12T06:51:42.849Z,12.55
2022-09-12T06:54:15.656Z,12.59
2022-09-12T06:56:44.430Z,12.64
2022-09-12T06:59:12.813Z,12.69
2022-09-12T07:01:41.991Z,12.72
2022-09-12T07:04:10.886Z,12.74
2022-09-12T07:06:42.196Z,12.79
2022-09-12T07:09:12.080Z,12.75
2022-09-12T07:11:41.045Z,12.83
2022-09-12T07:14:10.741Z,12.92
2022-09-12T07:16:39.283Z,12.93
2022-09-12T07:19:08.336Z,12.98
2022-09-12T07:21:40.690Z,12.96
2022-09-12T07:24:12.062Z,12.92
2022-09-12T07:26:42.593Z,12.88
2022-09-12T07:29:35.822Z,12.83
2022-09-12T07:32:06.017Z,12.83
2022-09-12T07:34:34.773Z,12.87
2022-09-12T07:37:02.946Z,12.90
2022-09-12T07:39:31.013Z,12.91
2022-09-12T07:42:00.516Z,13.01
2022-09-12T07:44:30.324Z,13.08
2022-09-12T07:46:58.758Z,13.13
2022-09-12T07:49:26.997Z,13.18
2022-09-12T07:51:54.920Z,13.28
2022-09-12T07:54:23.145Z,13.31
2022-09-12T07:56:51.934Z,13.27
2022-09-12T07:59:35.663Z,13.26
2022-09-12T08:02:17.259Z,13.28
2022-09-12T08:04:47.085Z,13.26
2022-09-12T08:07:15.775Z,13.29
2022-09-12T08:09:43.736Z,13.32
2022-09-12T08:12:11.680Z,13.34
2022-09-12T08:14:40.103Z,13.37
2022-09-12T08:17:07.977Z,13.35
2022-09-12T08:19:36.118Z,13.30
2022-09-12T08:22:04.574Z,13.21
2022-09-12T08:24:32.688Z,13.34
2022-09-12T08:27:01.073Z,13.53
2022-09-12T08:29:29.040Z,13.62
2022-09-12T08:31:57.479Z,13.64
2022-09-12T08:34:26.314Z,13.64
2022-09-12T08:36:54.830Z,13.73
2022-09-12T08:39:22.788Z,13.79
2022-09-12T08:42:02.273Z,13.78
2022-09-12T08:44:42.609Z,13.70
2022-09-12T08:47:11.793Z,13.69
2022-09-12T08:49:45.699Z,13.63
2022-09-12T08:52:17.234Z,13.71
2022-09-12T08:54:48.003Z,13.73
2022-09-12T08:57:16.178Z,13.77
2022-09-12T08:59:45.577Z,13.87
2022-09-12T09:02:19.711Z,13.95
2022-09-12T09:04:47.789Z,14.01
2022-09-12T09:07:23.060Z,14.09
2022-09-12T09:09:54.883Z,14.36
2022-09-12T09:12:43.236Z,14.68
2022-09-12T09:15:22.040Z,14.59
2022-09-12T09:17:55.098Z,14.40
2022-09-12T09:20:44.174Z,14.85
2022-09-12T09:23:34.215Z,15.18
2022-09-12T09:26:11.400Z,15.32
2022-09-12T09:28:46.736Z,15.52
2022-09-12T09:31:15.934Z,15.42
2022-09-12T09:33:44.713Z,15.43
2022-09-12T09:36:14.146Z,15.48
2022-09-12T09:38:48.323Z,15.39
2022-09-12T09:41:26.024Z,15.27
2022-09-12T09:43:56.761Z,15.31
2022-09-12T09:46:26.998Z,15.49
2022-09-12T09:48:55.667Z,15.52
2022-09-12T09:51:27.464Z,15.40
2022-09-12T09:54:02.242Z,15.32
2022-09-12T09:56:34.637Z,15.19
2022-09-12T09:59:10.684Z,15.21
2022-09-12T10:01:47.494Z,15.10
2022-09-12T10:04:41.392Z,15.09
2022-09-12T10:07:18.943Z,15.17
2022-09-12T10:10:05.741Z,15.18
2022-09-12T10:12:34.352Z,15.28
2022-09-12T10:15:04.006Z,15.32
2022-09-12T10:17:39.487Z,15.38
2022-09-12T10:20:27.835Z,15.41
2022-09-12T10:22:56.060Z,15.41
2022-09-12T10:25:25.237Z,15.49
2022-09-12T10:27:54.820Z,15.44
2022-09-12T10:30:28.424Z,15.53
2022-09-12T10:33:00.095Z,15.58
2022-09-12T10:35:31.146Z,15.50
2022-09-12T10:37:59.612Z,15.53
2022-09-12T10:40:29.697Z,15.56
2022-09-12T10:42:59.337Z,15.58
2022-09-12T10:45:32.507Z,15.61
2022-09-12T10:48:06.843Z,15.74
2022-09-12T10:50:41.414Z,15.73
2022-09-12T10:53:20.564Z,15.74
2022-09-12T10:56:01.550Z,15.78
2022-09-12T10:58:35.496Z,15.86
2022-09-12T11:01:12.508Z,15.88
2022-09-12T11:03:52.214Z,15.81
2022-09-12T11:06:26.093Z,15.84
2022-09-12T11:09:06.497Z,15.79
2022-09-12T11:12:01.323Z,15.74
2022-09-12T11:14:38.532Z,15.77
2022-09-12T11:17:17.756Z,15.71
2022-09-12T11:20:04.838Z,15.57
2022-09-12T11:22:51.652Z,15.63
2022-09-12T11:25:35.852Z,15.60
2022-09-12T11:28:19.239Z,15.69
2022-09-12T11:30:56.870Z,15.79
2022-09-12T11:33:34.126Z,15.84
2022-09-12T11:36:05.269Z,15.95
2022-09-12T11:38:39.050Z,16.02
2022-09-12T11:41:40.550Z,16.02
2022-09-12T11:44:12.013Z,16.09
2022-09-12T11:46:45.896Z,16.06
2022-09-12T11:49:20.259Z,15.95
2022-09-12T11:51:48.397Z,15.86
2022-09-12T11:54:35.014Z,15.83
2022-09-12T11:57:16.945Z,15.81
2022-09-12T11:59:47.836Z,15.85
2022-09-12T12:02:28.252Z,15.95
2022-09-12T12:04:58.574Z,16.08
2022-09-12T12:07:26.573Z,16.16
2022-09-12T12:09:55.290Z,16.17
2022-09-12T12:12:26.126Z,16.16
2022-09-12T12:14:56.349Z,16.13
2022-09-12T12:17:25.022Z,16.26
2022-09-12T12:20:06.713Z,16.16
2022-09-12T12:22:36.724Z,15.99
2022-09-12T12:25:06.971Z,16.13
2022-09-12T12:27:44.366Z,16.26
2022-09-12T12:30:30.479Z,16.39
2022-09-12T12:33:07.360Z,16.33
2022-09-12T12:35:43.158Z,16.49
2022-09-12T12:38:32.059Z,16.49
2022-09-12T12:41:18.585Z,16.53
2022-09-12T12:43:51.040Z,16.50
2022-09-12T12:46:24.046Z,16.42
2022-09-12T12:48:54.846Z,16.47
2022-09-12T12:51:43.015Z,16.52
2022-09-12T12:54:28.189Z,16.63
2022-09-12T12:57:03.688Z,16.64
2022-09-12T12:59:32.474Z,16.66
2022-09-12T13:02:00.758Z,16.61
2022-09-12T13:04:30.807Z,16.60
2022-09-12T13:07:08.165Z,16.52
2022-09-12T13:09:44.842Z,16.56
2022-09-12T13:12:24.122Z,16.62
2022-09-12T13:14:59.684Z,16.63
2022-09-12T13:17:37.083Z,16.71
2022-09-12T13:20:27.970Z,16.60
2022-09-12T13:22:57.579Z,16.56
2022-09-12T13:25:29.231Z,16.47
2022-09-12T13:28:02.433Z,16.35
2022-09-12T13:30:32.348Z,16.22
2022-09-12T13:33:08.322Z,16.02
2022-09-12T13:35:39.045Z,15.97
2022-09-12T13:38:22.526Z,15.87
2022-09-12T13:41:05.512Z,15.84
2022-09-12T13:43:40.342Z,15.87
2022-09-12T13:46:11.122Z,15.89
2022-09-12T13:48:39.588Z,15.93
2022-09-12T13:51:08.021Z,15.96
2022-09-12T13:53:42.696Z,15.98
2022-09-12T13:56:15.973Z,16.05
2022-09-12T13:59:01.182Z,16.15
2022-09-12T14:01:40.273Z,16.11
2022-09-12T14:04:39.487Z,16.14
2022-09-12T14:07:16.652Z,16.20
2022-09-12T14:09:45.882Z,16.26
2022-09-12T14:12:25.931Z,16.25
2022-09-12T14:14:54.094Z,16.25
2022-09-12T14:17:29.855Z,16.26
2022-09-12T14:20:04.112Z,16.19
2022-09-12T14:22:34.303Z,16.18
2022-09-12T14:25:03.063Z,16.13
2022-09-12T14:27:57.496Z,16.04
2022-09-12T14:30:36.696Z,16.01
2022-09-12T14:33:05.883Z,16.02
2022-09-12T14:35:33.807Z,16.02
2022-09-12T14:38:27.934Z,16.06
2022-09-12T14:41:01.286Z,16.06
2022-09-12T14:43:29.215Z,16.06
2022-09-12T14:46:03.472Z,15.99
2022-09-12T14:48:46.833Z,15.95
2022-09-12T14:51:35.137Z,15.92
2022-09-12T14:54:03.185Z,15.89
2022-09-12T14:56:41.910Z,15.87
2022-09-12T14:59:28.619Z,15.87
2022-09-12T15:02:15.328Z,15.73
2022-09-12T15:04:45.409Z,15.63
2022-09-12T15:07:33.902Z,15.56
2022-09-12T15:10:03.594Z,15.48
2022-09-12T15:12:31.493Z,15.42
2022-09-12T15:15:07.974Z,15.39
2022-09-12T15:17:35.856Z,15.41
2022-09-12T15:20:03.821Z,15.44
2022-09-12T15:22:33.278Z,15.45
2022-09-12T15:25:01.200Z,15.49
2022-09-12T15:27:29.754Z,15.50
2022-09-12T15:29:58.086Z,15.51
2022-09-12T15:32:27.142Z,15.50
2022-09-12T15:34:55.278Z,15.46
2022-09-12T15:37:24.344Z,15.39
2022-09-12T15:39:52.257Z,15.33
2022-09-12T15:42:29.298Z,15.25
2022-09-12T15:45:01.800Z,15.18
2022-09-12T15:47:30.340Z,15.13
2022-09-12T15:49:58.170Z,15.08
2022-09-12T15:52:26.109Z,15.03
2022-09-12T15:54:53.908Z,14.99
2022-09-12T15:57:21.863Z,14.95
2022-09-12T15:59:49.874Z,14.91
2022-09-12T16:02:17.688Z,14.86
2022-09-12T16:04:47.676Z,14.80
2022-09-12T16:07:15.619Z,14.77
2022-09-12T16:09:43.640Z,14.77
2022-09-12T16:12:11.662Z,14.76
2022-09-12T16:14:39.836Z,14.72
2022-09-12T16:17:08.132Z,14.67
2022-09-12T16:19:36.066Z,14.63
2022-09-12T16:22:03.900Z,14.60
2022-09-12T16:24:31.813Z,14.56
2022-09-12T16:27:01.261Z,14.54
2022-09-12T16:29:30.137Z,14.50
2022-09-12T16:31:58.203Z,14.45
2022-09-12T16:34:26.268Z,14.42
2022-09-12T16:36:54.237Z,14.38
2022-09-12T16:39:22.175Z,14.33
2022-09-12T16:41:50.492Z,14.29
2022-09-12T16:44:18.629Z,14.26
2022-09-12T16:46:46.701Z,14.21
2022-09-12T16:49:14.697Z,14.17
2022-09-12T16:51:47.494Z,14.11
2022-09-12T16:54:16.305Z,14.04
2022-09-12T16:56:44.457Z,14.03
2022-09-12T16:59:16.421Z,13.97
2022-09-12T17:01:45.307Z,13.88
2022-09-12T17:04:14.099Z,13.84
2022-09-12T17:06:42.793Z,13.78
2022-09-12T17:09:11.680Z,13.77
2022-09-12T17:11:40.064Z,13.70
2022-09-12T17:14:08.925Z,13.66
2022-09-12T17:16:49.239Z,13.64
2022-09-12T17:19:20.890Z,13.59
2022-09-12T17:21:51.684Z,13.53
2022-09-12T17:24:20.097Z,13.48
2022-09-12T17:26:48.166Z,13.44
2022-09-12T17:29:17.263Z,13.35
2022-09-12T17:31:45.646Z,13.32
2022-09-12T17:34:17.842Z,13.30
2022-09-12T17:36:48.491Z,13.25
2022-09-12T17:39:16.501Z,13.19
2022-09-12T17:41:46.202Z,13.14
2022-09-12T17:44:15.290Z,13.08
2022-09-12T17:46:44.434Z,13.02
2022-09-12T17:49:13.933Z,12.99
2022-09-12T17:51:43.983Z,12.99
2022-09-12T17:54:15.085Z,13.00
2022-09-12T17:56:44.533Z,12.99
2022-09-12T17:59:19.568Z,13.01
2022-09-12T18:02:06.500Z,13.04
2022-09-12T18:04:34.940Z,13.08
2022-09-12T18:07:04.414Z,13.09
2022-09-12T18:09:32.947Z,13.11
2022-09-12T18:12:01.615Z,13.12
2022-09-12T18:14:29.807Z,13.13
2022-09-12T18:16:58.287Z,13.14
2022-09-12T18:19:27.497Z,13.10
2022-09-12T18:21:56.170Z,12.95
2022-09-12T18:24:24.755Z,12.82
2022-09-12T18:26:52.739Z,12.79
2022-09-12T18:29:21.507Z,12.81
2022-09-12T18:31:50.546Z,12.82
2022-09-12T18:34:18.576Z,12.78
2022-09-12T18:36:48.040Z,12.70
2022-09-12T18:39:17.412Z,12.51
2022-09-12T18:41:45.236Z,12.24
2022-09-12T18:44:13.223Z,12.22
2022-09-12T18:46:41.790Z,12.22
2022-09-12T18:49:10.556Z,12.22
2022-09-12T18:51:40.241Z,12.24
2022-09-12T18:54:12.065Z,12.23
2022-09-12T18:56:41.534Z,12.24
2022-09-12T18:59:09.978Z,12.27
2022-09-12T19:01:38.195Z,12.27
2022-09-12T19:04:07.787Z,12.32
2022-09-12T19:06:38.607Z,12.30
2022-09-12T19:09:08.451Z,12.32
2022-09-12T19:11:40.407Z,12.32
2022-09-12T19:14:08.563Z,12.30
2022-09-12T19:16:37.019Z,12.31
2022-09-12T19:19:04.928Z,12.31
2022-09-12T19:21:34.585Z,12.33
2022-09-12T19:24:04.519Z,12.39
2022-09-12T19:26:33.718Z,12.40
2022-09-12T19:29:03.135Z,12.43
2022-09-12T19:31:32.053Z,12.46
2022-09-12T19:34:04.701Z,12.51
2022-09-12T19:36:44.958Z,12.59
2022-09-12T19:39:15.119Z,12.65
2022-09-12T19:41:43.875Z,12.66
2022-09-12T19:44:12.027Z,12.70
2022-09-12T19:46:40.619Z,12.65
2022-09-12T19:49:10.032Z,12.61
2022-09-12T19:51:38.093Z,12.55
2022-09-12T19:54:07.934Z,12.50
2022-09-12T19:56:36.299Z,12.48
2022-09-12T19:59:04.930Z,12.48
2022-09-12T20:01:34.973Z,12.49
2022-09-12T20:04:03.361Z,12.56
2022-09-12T20:06:31.468Z,12.56
2022-09-12T20:09:00.147Z,12.53
2022-09-12T20:11:28.176Z,12.56
2022-09-12T20:13:56.191Z,12.61
2022-09-12T20:16:29.817Z,12.63
2022-09-12T20:18:59.840Z,12.60
2022-09-12T20:21:32.404Z,12.59
2022-09-12T20:24:20.684Z,12.55
2022-09-12T20:26:48.610Z,12.47
2022-09-12T20:29:16.538Z,12.44
2022-09-12T20:31:45.063Z,12.39
2022-09-12T20:34:17.227Z,12.36
2022-09-12T20:36:45.554Z,12.41
2022-09-12T20:39:18.302Z,12.45
2022-09-12T20:41:46.682Z,12.50
2022-09-12T20:44:15.001Z,12.55
2022-09-12T20:46:43.156Z,12.58
2022-09-12T20:49:11.303Z,12.56
2022-09-12T20:51:39.221Z,12.52
2022-09-12T20:54:07.480Z,12.50
2022-09-12T20:56:36.611Z,12.53
2022-09-12T20:59:05.446Z,12.51
2022-09-12T21:01:33.622Z,12.46
2022-09-12T21:04:02.559Z,12.47
2022-09-12T21:06:31.649Z,12.46
2022-09-12T21:09:00.787Z,12.47
2022-09-12T21:11:29.406Z,12.49
2022-09-12T21:13:58.078Z,12.52
2022-09-12T21:16:26.567Z,12.47
2022-09-12T21:18:56.172Z,12.42
2022-09-12T21:21:24.733Z,12.42
2022-09-12T21:23:55.621Z,12.39
2022-09-12T21:26:23.465Z,12.39
2022-09-12T21:28:51.394Z,12.38
2022-09-12T21:31:19.435Z,12.39
2022-09-12T21:33:47.828Z,12.37
2022-09-12T21:36:15.895Z,12.32
2022-09-12T21:38:44.036Z,12.31
2022-09-12T21:41:13.823Z,12.35
2022-09-12T21:43:42.786Z,12.34
2022-09-12T21:46:11.269Z,12.32
2022-09-12T21:48:39.522Z,12.29
2022-09-12T21:51:07.473Z,12.26
2022-09-12T21:53:35.709Z,12.26
2022-09-12T21:56:04.970Z,12.31
2022-09-12T21:58:33.208Z,12.30
2022-09-12T22:01:01.680Z,12.27
2022-09-12T22:03:30.027Z,12.24
2022-09-12T22:05:59.091Z,12.27
2022-09-12T22:08:27.400Z,12.31
2022-09-12T22:11:02.742Z,12.37
2022-09-12T22:13:33.824Z,12.42
2022-09-12T22:16:03.482Z,12.40
2022-09-12T22:18:35.532Z,12.38
2022-09-12T22:21:12.719Z,12.35
2022-09-12T22:23:59.739Z,12.35
2022-09-12T22:26:27.914Z,12.29
2022-09-12T22:28:56.402Z,12.28
2022-09-12T22:31:24.546Z,12.32
2022-09-12T22:33:54.928Z,12.25
2022-09-12T22:36:23.596Z,12.20
2022-09-12T22:38:51.661Z,12.16
2022-09-12T22:41:19.639Z,12.07
2022-09-12T22:43:47.695Z,12.00
2022-09-12T22:46:15.563Z,11.97
2022-09-12T22:48:43.747Z,11.98
2022-09-12T22:51:11.700Z,11.99
2022-09-12T22:53:39.691Z,11.99
2022-09-12T22:56:08.775Z,11.99
2022-09-12T22:58:37.601Z,11.93
2022-09-12T23:01:06.463Z,11.93
2022-09-12T23:03:36.588Z,11.93
2022-09-12T23:06:04.832Z,11.93
2022-09-12T23:08:35.078Z,11.93
2022-09-12T23:11:09.609Z,11.93
2022-09-12T23:13:38.318Z,11.92
2022-09-12T23:16:07.644Z,11.92
2022-09-12T23:18:36.537Z,11.94
2022-09-12T23:21:05.863Z,11.94
2022-09-12T23:23:35.103Z,11.95
2022-09-12T23:26:03.197Z,11.96
2022-09-12T23:28:31.382Z,11.99
2022-09-12T23:31:00.480Z,11.99
2022-09-12T23:33:29.342Z,11.97
2022-09-12T23:36:02.338Z,11.94
2022-09-12T23:38:30.512Z,11.91
2022-09-12T23:40:58.616Z,11.90
2022-09-12T23:43:27.269Z,11.83
2022-09-12T23:45:55.356Z,11.82
2022-09-12T23:48:23.618Z,11.77
2022-09-12T23:50:52.048Z,11.76
2022-09-12T23:53:20.994Z,11.76
2022-09-12T23:55:49.579Z,11.73
2022-09-12T23:58:17.978Z,11.73
